< Typhoon 201314 2013 Season Typhoon 201316 >
Typhoon 201315 (KONG-REY)
General InformationTrack Information on Google MapsDetailed Wind InformationForecast History on Google MapsAccess Analytics MapList of All Images || NewsDisaster Info.WeblogTrackbackTyphoon FrontTwiphoonTyphoon Now!Typhoon ImaginationDisaster Info. XMLResourceGoogle EarthGE AnimationAtom FeedGeoJSON
Detalied Best Track (Time Zone = UTC)
Year Month Day Hour Lat. Long. Pressure (hPa) Wind (kt) Class Image Chart
2013 8 25 00 11.3 129.0 1004 0 2 Image Chart
2013 8 25 06 12.1 128.7 1002 0 2 Image Chart
2013 8 25 12 13.5 128.1 1002 0 2 Image Chart
2013 8 25 18 14.8 127.0 1002 0 2 Image Chart
2013 8 26 00 15.4 126.1 1002 0 2 Image Chart
2013 8 26 06 16.0 125.3 1000 35 3 Image Chart
2013 8 26 12 16.9 124.2 998 35 3 Image Chart
2013 8 26 18 17.6 123.8 996 40 3 Image Chart
2013 8 27 00 18.4 124.0 996 40 3 Image Chart
2013 8 27 06 19.4 123.9 996 40 3 Image Chart
2013 8 27 12 20.0 123.5 992 45 3 Image Chart
2013 8 27 18 20.4 123.1 990 45 3 Image Chart
2013 8 28 00 20.8 122.8 985 50 4 Image Chart
2013 8 28 06 21.9 122.7 985 50 4 Image Chart
2013 8 28 09 22.4 122.7 985 50 4 Image Chart
2013 8 28 12 22.8 122.5 980 55 4 Image Chart
2013 8 28 15 23.2 122.4 980 55 4 Image Chart
2013 8 28 18 23.9 122.5 980 55 4 Image Chart
2013 8 28 21 24.6 122.5 985 50 4 Image Chart
2013 8 29 00 25.2 122.5 992 40 3 Image Chart
2013 8 29 03 25.7 122.5 996 35 3 Image Chart
2013 8 29 06 25.9 122.3 996 35 3 Image Chart
2013 8 29 12 26.7 122.1 996 35 3 Image Chart
2013 8 29 18 27.2 122.5 996 35 3 Image Chart
2013 8 30 00 28.7 123.5 998 0 2 Image Chart
2013 8 30 06 29.9 124.5 1000 0 2 Image Chart
Japan Meteorological Agency Best Track Data | Correction Date : 2013-09-27
< Typhoon 201314 2013 Season Typhoon 201316 >

Help